Sulphur Espoir — 3FXA2 — position and weather

sailwx.info

Track history (hours):
 
Tides and Currents Weather Stations Pressure Air Temp Water Temp Dewpoint Dewpoint Depression Visibility Wind Speed Wind Dir Waves Ship Positions

Sulphur Espoir

Last reported at 2017-Oct-14 10:40 UTC. Time now 2017-Oct-19 05:31 UTC.
Position N 34°53' E 139°20'.

Length 100 m; draft 6.2 m.

Type: Ship (hazmat cat C). MMSI: 373734000.

Date/timePositionNaut miles runAvg speedWind from/ knotsBaromVisibWave heightAir tempDewpointWater temp
2017-Oct-14 10:40N 34°53' E 139°20'210.2
2017-Oct-14 10:27N 34°54' E 139°22'510.3
2017-Oct-14 10:00N 34°57' E 139°27'510.2
2017-Oct-14 09:30N 35°00' E 139°31'611.5
2017-Oct-14 08:59N 35°04' E 139°37'612.4
2017-Oct-14 08:30N 35°07' E 139°43'612.5
2017-Oct-14 08:00N 35°13' E 139°46'612.0
2017-Oct-14 07:30N 35°18' E 139°43'611.4
2017-Oct-14 07:00N 35°24' E 139°43'612.0
2017-Oct-14 06:30N 35°28' E 139°49'710.9
2017-Oct-14 05:50N 35°31' E 139°57'2 5.0
2017-Oct-14 05:24N 35°31' E 139°59'0 0.0
2017-Oct-14 04:15N 35°31' E 139°59'0 0.0
2017-Oct-14 03:13N 35°31' E 139°59'3 0.6
2017-Oct-13 22:18N 35°31' E 140°03'2 3.9
2017-Oct-13 21:47N 35°31' E 140°00'1 2.7
2017-Oct-13 21:23N 35°31' E 139°59'0 0.0
2017-Oct-13 20:59N 35°31' E 139°59'0 0.0
2017-Oct-13 20:29N 35°31' E 139°59'0 0.0
2017-Oct-13 19:41N 35°31' E 139°59'0 0.0
2017-Oct-13 19:29N 35°31' E 139°59'0 0.0
2017-Oct-13 18:59N 35°31' E 139°59'0 0.0
2017-Oct-13 18:29N 35°31' E 139°59'0 0.0
2017-Oct-13 17:59N 35°31' E 139°59'0 0.0
2017-Oct-13 17:26N 35°31' E 139°59'0 0.0
2017-Oct-13 16:56N 35°31' E 139°59'0 0.0
2017-Oct-13 16:29N 35°31' E 139°59'0 0.0
2017-Oct-13 15:53N 35°31' E 139°59'0 0.0
2017-Oct-13 15:29N 35°31' E 139°59'0 0.0
2017-Oct-13 11:53N 35°31' E 139°59'0 0.0
2017-Oct-13 09:56N 35°31' E 139°59'1 2.0
2017-Oct-13 09:29N 35°31' E 139°58'510.5
2017-Oct-13 09:00N 35°29' E 139°52'611.1
2017-Oct-13 08:30N 35°25' E 139°47'510.7
2017-Oct-13 08:00N 35°20' E 139°45'510.2
2017-Oct-13 07:30N 35°16' E 139°47'511.0
2017-Oct-13 07:00N 35°10' E 139°47'611.3
2017-Oct-13 06:30N 35°05' E 139°45'611.1
2017-Oct-13 05:59N 34°59' E 139°42'5 9.0
2017-Oct-13 05:23N 34°55' E 139°45'  
2017-Oct-09 23:30N 34°48' E 139°52'  
2017-Oct-06 16:27N 31°00' E 122°24'612.7
2017-Oct-06 15:59N 31°02' E 122°17'511.1
2017-Oct-06 15:30N 31°03' E 122°11'510.6
2017-Oct-06 15:00N 31°04' E 122°05'5 9.9
2017-Oct-06 14:30N 31°05' E 121°60'4 8.6
2017-Oct-06 14:00N 31°08' E 121°55'5 9.1
2017-Oct-06 13:31N 31°10' E 121°51'611.5
2017-Oct-06 13:00N 31°15' E 121°47'713.5
2017-Oct-06 12:30N 31°20' E 121°41'611.5
2017-Oct-06 12:00N 31°23' E 121°36'611.5
2017-Oct-06 11:31N 31°26' E 121°30'510.8
2017-Oct-06 11:01N 31°30' E 121°25'611.8
2017-Oct-06 10:30N 31°33' E 121°20'713.5
2017-Oct-06 10:00N 31°38' E 121°15'714.7
2017-Oct-06 09:30N 31°43' E 121°08'9 0.2
2017-Oct-04 10:52N 31°47' E 120°58'  
Track history (hours):
 
Tides and Currents Weather Stations Pressure Air Temp Water Temp Dewpoint Dewpoint Depression Visibility Wind Speed Wind Dir Waves Ship Positions

Sulphur Espoir

Last reported at 2017-Oct-14 10:40 UTC. Time now 2017-Oct-19 05:31 UTC.
Position N 34°53' E 139°20'.

Length 100 m; draft 6.2 m.

Type: Ship (hazmat cat C). MMSI: 373734000.

Date/timePositionNaut miles runAvg speedWind from/ knotsBaromVisibWave heightAir tempDewpointWater temp
2017-Oct-14 10:40N 34°53' E 139°20'210.2
2017-Oct-14 10:27N 34°54' E 139°22'510.3
2017-Oct-14 10:00N 34°57' E 139°27'510.2
2017-Oct-14 09:30N 35°00' E 139°31'611.5
2017-Oct-14 08:59N 35°04' E 139°37'612.4
2017-Oct-14 08:30N 35°07' E 139°43'612.5
2017-Oct-14 08:00N 35°13' E 139°46'612.0
2017-Oct-14 07:30N 35°18' E 139°43'611.4
2017-Oct-14 07:00N 35°24' E 139°43'612.0
2017-Oct-14 06:30N 35°28' E 139°49'710.9
2017-Oct-14 05:50N 35°31' E 139°57'2 5.0
2017-Oct-14 05:24N 35°31' E 139°59'0 0.0
2017-Oct-14 04:15N 35°31' E 139°59'0 0.0
2017-Oct-14 03:13N 35°31' E 139°59'3 0.6
2017-Oct-13 22:18N 35°31' E 140°03'2 3.9
2017-Oct-13 21:47N 35°31' E 140°00'1 2.7
2017-Oct-13 21:23N 35°31' E 139°59'0 0.0
2017-Oct-13 20:59N 35°31' E 139°59'0 0.0
2017-Oct-13 20:29N 35°31' E 139°59'0 0.0
2017-Oct-13 19:41N 35°31' E 139°59'0 0.0
2017-Oct-13 19:29N 35°31' E 139°59'0 0.0
2017-Oct-13 18:59N 35°31' E 139°59'0 0.0
2017-Oct-13 18:29N 35°31' E 139°59'0 0.0
2017-Oct-13 17:59N 35°31' E 139°59'0 0.0
2017-Oct-13 17:26N 35°31' E 139°59'0 0.0
2017-Oct-13 16:56N 35°31' E 139°59'0 0.0
2017-Oct-13 16:29N 35°31' E 139°59'0 0.0
2017-Oct-13 15:53N 35°31' E 139°59'0 0.0
2017-Oct-13 15:29N 35°31' E 139°59'0 0.0
2017-Oct-13 11:53N 35°31' E 139°59'0 0.0
2017-Oct-13 09:56N 35°31' E 139°59'1 2.0
2017-Oct-13 09:29N 35°31' E 139°58'510.5
2017-Oct-13 09:00N 35°29' E 139°52'611.1
2017-Oct-13 08:30N 35°25' E 139°47'510.7
2017-Oct-13 08:00N 35°20' E 139°45'510.2
2017-Oct-13 07:30N 35°16' E 139°47'511.0
2017-Oct-13 07:00N 35°10' E 139°47'611.3
2017-Oct-13 06:30N 35°05' E 139°45'611.1
2017-Oct-13 05:59N 34°59' E 139°42'5 9.0
2017-Oct-13 05:23N 34°55' E 139°45'  
2017-Oct-09 23:30N 34°48' E 139°52'  
2017-Oct-06 16:27N 31°00' E 122°24'612.7
2017-Oct-06 15:59N 31°02' E 122°17'511.1
2017-Oct-06 15:30N 31°03' E 122°11'510.6
2017-Oct-06 15:00N 31°04' E 122°05'5 9.9
2017-Oct-06 14:30N 31°05' E 121°60'4 8.6
2017-Oct-06 14:00N 31°08' E 121°55'5 9.1
2017-Oct-06 13:31N 31°10' E 121°51'611.5
2017-Oct-06 13:00N 31°15' E 121°47'713.5
2017-Oct-06 12:30N 31°20' E 121°41'611.5
2017-Oct-06 12:00N 31°23' E 121°36'611.5
2017-Oct-06 11:31N 31°26' E 121°30'510.8
2017-Oct-06 11:01N 31°30' E 121°25'611.8
2017-Oct-06 10:30N 31°33' E 121°20'713.5
2017-Oct-06 10:00N 31°38' E 121°15'714.7
2017-Oct-06 09:30N 31°43' E 121°08'9 0.2
2017-Oct-04 10:52N 31°47' E 120°58'  

Dump ship's entire track history